GOOY/DKR METAR and TAF weather

Enter ICAO airport designator
Station Type Date Time Source
GOOY METAR 2020/10/20 17:00 UTC NOAA

GOOY 201700Z 00000KT CAVOK 34/24 Q1012


Station Type Date Time Source
GOOY Decoded METAR 2020/10/20 17:00 UTC NOAA

Dakar / Yoff, Senegal (GOOY) 14-44N 017-30W 24M
Oct 20, 2020 - 01:00 PM EDT / 2020.10.20 1700 UTC
Wind: Calm:0
Visibility: greater than 7 mile(s):0
Temperature: 93 F (34 C)
Heat index: 104.5 F (40.3 C):1
Dew Point: 75 F (24 C)
Relative Humidity: 56%
Pressure (altimeter): 29.88 in. Hg (1012 hPa)
ob: GOOY 201700Z 00000KT CAVOK 34/24 Q1012
cycle: 17

Station Type Date Time Source
GOOY TAF 2020/10/20 18:45 UTC NOAA

TAF GOOY 201730Z 2018/2124 04008KT CAVOK

Example: see airport list